Time;durP1;ratioP1;P1;durP2;ratioP2;P2;SDS_P1;SDS_P2;PMS_P1;PMS_P2;Temp;Humidity;BMP_temperature;BMP_pressure;BME280_temperature;BME280_humidity;BME280_pressure;Samples;Min_cycle;Max_cycle;Signal;HPM_P1;HPM_P2
2023/07/01 00:02:12;;;;;;;3.22;2.00;;;;;;;18.12;63.34;100412.91;5040071;28;20128;-61
2023/07/01 00:04:38;;;;;;;3.20;1.77;;;;;;;18.12;63.67;100407.66;5035639;28;20170;-62
2023/07/01 00:07:04;;;;;;;5.32;2.30;;;;;;;18.14;62.97;100404.97;5037919;28;20036;-61
2023/07/01 00:09:30;;;;;;;3.42;2.28;;;;;;;18.13;62.60;100395.44;5037318;28;20041;-61
2023/07/01 00:11:55;;;;;;;3.25;1.85;;;;;;;18.14;62.39;100392.75;5035980;28;20029;-61
2023/07/01 00:14:21;;;;;;;3.95;1.85;;;;;;;18.16;62.01;100377.00;5037719;28;20048;-61
2023/07/01 00:16:46;;;;;;;3.88;1.90;;;;;;;18.14;62.29;100387.50;5026466;28;20077;-61
2023/07/01 00:19:11;;;;;;;3.47;1.90;;;;;;;18.13;62.66;100393.69;5024575;28;21272;-62
2023/07/01 00:21:37;;;;;;;5.60;2.15;;;;;;;18.14;62.52;100384.91;5037120;28;20112;-61
2023/07/01 00:24:03;;;;;;;2.90;2.05;;;;;;;18.15;62.61;100391.84;5038226;28;20799;-61
2023/07/01 00:26:28;;;;;;;5.68;2.70;;;;;;;18.14;62.63;100389.28;5037992;28;20071;-61
2023/07/01 00:28:53;;;;;;;2.97;1.77;;;;;;;18.11;62.68;100384.19;5035162;28;20051;-61
2023/07/01 00:31:19;;;;;;;3.85;2.20;;;;;;;18.09;63.01;100384.28;5038075;28;20107;-62
2023/07/01 00:33:44;;;;;;;3.85;2.30;;;;;;;18.09;62.86;100380.81;5036744;28;20029;-61
2023/07/01 00:36:10;;;;;;;2.60;2.08;;;;;;;18.09;62.88;100383.41;5038372;28;20783;-61
2023/07/01 00:38:35;;;;;;;4.97;1.92;;;;;;;18.10;62.13;100366.81;5034868;28;20052;-61
2023/07/01 00:41:00;;;;;;;2.67;1.58;;;;;;;18.09;62.25;100360.72;5034068;28;20794;-61
2023/07/01 00:43:26;;;;;;;3.92;2.10;;;;;;;18.11;61.76;100352.78;5039561;28;20048;-61
2023/07/01 00:45:51;;;;;;;4.63;2.28;;;;;;;18.12;61.50;100351.88;5038631;28;20591;-61
2023/07/01 00:48:24;;;;;;;4.53;1.90;;;;;;;18.11;61.40;100337.09;5037865;28;20090;-61
2023/07/01 00:50:51;;;;;;;2.97;2.03;;;;;;;18.13;60.97;100327.44;5040189;28;20133;-61
2023/07/01 00:53:17;;;;;;;5.80;2.38;;;;;;;18.13;61.13;100327.44;5035567;28;20783;-61
2023/07/01 00:55:42;;;;;;;4.45;2.58;;;;;;;18.14;61.26;100329.97;5036479;28;20111;-61
2023/07/01 00:58:08;;;;;;;6.20;2.30;;;;;;;18.13;61.56;100327.44;5031163;28;20033;-61
2023/07/01 01:00:34;;;;;;;7.28;4.88;;;;;;;18.12;61.41;100331.81;5038077;28;20114;-61
2023/07/01 01:03:22;;;;;;;3.85;2.05;;;;;;;18.10;61.33;100325.81;5037144;28;20079;-61
2023/07/01 01:06:00;;;;;;;3.58;1.75;;;;;;;18.10;62.06;100332.81;5033700;28;20418;-61
2023/07/01 01:08:34;;;;;;;3.15;2.28;;;;;;;18.10;61.79;100319.72;5033724;28;20037;-61
2023/07/01 01:11:01;;;;;;;4.68;2.00;;;;;;;18.09;61.90;100320.63;5034849;28;20065;-61
2023/07/01 01:13:28;;;;;;;4.00;1.70;;;;;;;18.11;62.06;100317.03;5038785;28;20080;-61
2023/07/01 01:15:57;;;;;;;4.38;2.00;;;;;;;18.12;62.13;100321.34;5038973;28;20037;-61
2023/07/01 01:18:28;;;;;;;5.63;1.92;;;;;;;18.11;62.01;100313.56;5036620;28;20032;-61
2023/07/01 01:21:02;;;;;;;4.65;2.08;;;;;;;18.12;61.71;100304.81;5060835;28;20447;-61
2023/07/01 01:23:34;;;;;;;4.65;2.17;;;;;;;18.13;62.07;100306.50;5022196;28;20033;-61
2023/07/01 01:26:34;;;;;;;3.63;2.13;;;;;;;18.17;62.31;100315.91;5011428;28;20040;-61
2023/07/01 01:29:00;;;;;;;3.70;1.95;;;;;;;18.16;62.36;100312.47;5007582;28;20046;-61
2023/07/01 01:31:28;;;;;;;3.60;2.08;;;;;;;18.15;62.13;100302.91;5013836;28;20037;-61
2023/07/01 01:33:54;;;;;;;2.63;1.70;;;;;;;18.17;62.21;100302.81;5013673;28;20038;-61
2023/07/01 01:36:31;;;;;;;3.17;2.00;;;;;;;18.15;62.42;100304.66;5013590;28;20029;-64
2023/07/01 01:39:05;;;;;;;3.15;2.00;;;;;;;18.14;62.59;100305.56;5007502;28;20065;-61
2023/07/01 01:41:47;;;;;;;4.32;1.85;;;;;;;18.13;62.33;100296.06;5011393;28;20029;-61
2023/07/01 01:44:19;;;;;;;2.40;1.98;;;;;;;18.13;62.19;100286.44;5013005;28;20045;-61
2023/07/01 01:46:46;;;;;;;4.20;2.08;;;;;;;18.12;62.43;100299.56;5010427;28;20152;-61
2023/07/01 01:49:13;;;;;;;3.42;1.92;;;;;;;18.14;62.08;100292.50;5012845;28;20168;-61
2023/07/01 01:51:40;;;;;;;2.47;1.60;;;;;;;18.16;62.35;100293.28;5010637;28;20049;-61
2023/07/01 01:54:08;;;;;;;3.72;2.03;;;;;;;18.16;62.31;100285.44;5008405;28;20728;-61
2023/07/01 01:56:36;;;;;;;4.35;2.03;;;;;;;18.17;61.90;100277.50;5010512;28;20333;-61
2023/07/01 01:59:02;;;;;;;2.72;2.10;;;;;;;18.19;61.87;100267.84;5009705;28;20136;-61
2023/07/01 02:01:27;;;;;;;4.40;2.17;;;;;;;18.20;61.60;100271.28;5014688;28;20048;-61
2023/07/01 02:03:52;;;;;;;2.60;1.90;;;;;;;18.24;61.67;100260.63;5018826;28;20072;-61
2023/07/01 02:06:18;;;;;;;4.18;2.05;;;;;;;18.27;61.67;100265.69;5016239;28;20068;-62
2023/07/01 02:08:43;;;;;;;4.97;1.92;;;;;;;18.27;61.72;100259.63;5012078;28;20049;-62
2023/07/01 02:11:08;;;;;;;2.83;2.05;;;;;;;18.26;61.76;100257.91;5041671;28;20037;-62
2023/07/01 02:13:34;;;;;;;3.45;1.95;;;;;;;18.25;61.94;100267.56;5058922;28;20044;-61
2023/07/01 02:15:59;;;;;;;4.13;1.77;;;;;;;18.24;62.23;100283.31;5054049;28;20090;-62
2023/07/01 02:18:25;;;;;;;6.40;1.90;;;;;;;18.20;62.52;100277.38;5053339;28;20136;-62
2023/07/01 02:20:50;;;;;;;3.80;1.60;;;;;;;18.19;62.21;100275.69;5057261;28;20044;-62
2023/07/01 02:23:15;;;;;;;3.25;1.80;;;;;;;18.19;62.65;100282.69;5051205;28;20043;-62
2023/07/01 02:25:42;;;;;;;1.90;1.23;;;;;;;18.17;62.68;100284.50;5052045;28;20037;-62
2023/07/01 02:28:07;;;;;;;2.10;1.60;;;;;;;18.16;62.63;100283.69;5055785;28;20055;-62
2023/07/01 02:30:35;;;;;;;2.83;1.67;;;;;;;18.15;62.80;100286.34;5046501;28;20521;-62
2023/07/01 02:33:01;;;;;;;2.97;1.73;;;;;;;18.16;62.71;100285.44;5043379;28;20025;-63
2023/07/01 02:35:26;;;;;;;5.47;1.85;;;;;;;18.16;62.58;100264.50;5037643;28;20055;-63
2023/07/01 02:37:52;;;;;;;3.65;1.55;;;;;;;18.19;62.65;100264.38;5038918;28;20045;-63
2023/07/01 02:40:17;;;;;;;3.55;2.03;;;;;;;18.19;62.48;100265.22;5044560;28;20562;-63
2023/07/01 02:42:42;;;;;;;2.15;1.50;;;;;;;18.21;62.54;100268.59;5038980;28;20043;-62
2023/07/01 02:45:08;;;;;;;2.22;1.70;;;;;;;18.19;62.22;100256.53;5040974;28;20427;-62
2023/07/01 02:47:33;;;;;;;4.07;1.67;;;;;;;18.19;62.88;100261.75;5042559;28;20033;-62
2023/07/01 02:49:59;;;;;;;4.80;1.90;;;;;;;18.13;63.27;100269.88;5040297;28;20037;-62
2023/07/01 02:52:24;;;;;;;3.45;1.60;;;;;;;18.11;63.44;100269.94;5043604;28;20106;-61
2023/07/01 02:54:49;;;;;;;3.55;2.35;;;;;;;18.11;63.57;100271.72;5039629;28;20051;-62
2023/07/01 02:57:15;;;;;;;2.22;1.60;;;;;;;18.09;63.47;100260.47;5037637;28;20079;-62
2023/07/01 02:59:42;;;;;;;4.13;1.65;;;;;;;18.11;62.81;100249.03;5030783;28;20147;-62
2023/07/01 03:02:07;;;;;;;5.07;1.73;;;;;;;18.14;63.67;100256.72;5041622;28;20040;-62
2023/07/01 03:04:33;;;;;;;4.97;2.00;;;;;;;18.14;63.48;100255.88;5039184;28;20118;-62
2023/07/01 03:06:59;;;;;;;3.17;1.80;;;;;;;18.17;63.05;100247.88;5038669;28;20037;-64
2023/07/01 03:09:25;;;;;;;3.75;1.73;;;;;;;18.17;62.82;100240.03;5035924;28;20056;-62
2023/07/01 03:11:52;;;;;;;3.50;1.73;;;;;;;18.19;62.94;100248.69;5037253;28;20040;-62
2023/07/01 03:14:18;;;;;;;2.90;1.73;;;;;;;18.20;63.36;100263.44;5039149;28;20036;-62
2023/07/01 03:16:44;;;;;;;3.80;1.75;;;;;;;18.17;63.55;100259.19;5038734;28;20039;-62
2023/07/01 03:19:10;;;;;;;3.30;1.55;;;;;;;18.20;63.22;100252.97;5036994;28;20040;-63
2023/07/01 03:21:36;;;;;;;3.45;2.08;;;;;;;18.18;63.31;100239.13;5037619;28;20025;-62
2023/07/01 03:24:02;;;;;;;3.22;1.88;;;;;;;18.19;63.44;100246.91;5039969;28;20530;-62
2023/07/01 03:26:27;;;;;;;2.40;1.70;;;;;;;18.19;63.21;100241.69;5036273;28;20039;-62
2023/07/01 03:28:53;;;;;;;3.15;1.90;;;;;;;18.19;63.16;100236.44;5035579;28;20037;-62
2023/07/01 03:31:19;;;;;;;3.67;1.75;;;;;;;18.19;63.16;100233.84;5035174;28;20609;-62
2023/07/01 03:33:45;;;;;;;3.05;1.90;;;;;;;18.18;63.62;100245.22;5033217;28;20033;-62
2023/07/01 03:36:11;;;;;;;4.18;1.60;;;;;;;18.19;63.31;100238.22;5036290;28;20397;-62
2023/07/01 03:38:36;;;;;;;2.55;1.75;;;;;;;18.18;63.23;100223.44;5035163;28;20045;-61
2023/07/01 03:41:02;;;;;;;2.00;1.63;;;;;;;18.21;62.84;100224.13;5033458;28;20044;-61
2023/07/01 03:43:28;;;;;;;3.75;2.10;;;;;;;18.24;62.66;100221.38;5036462;28;20119;-61
2023/07/01 03:45:54;;;;;;;4.30;1.88;;;;;;;18.26;63.00;100216.03;5039158;28;20036;-61
2023/07/01 03:48:20;;;;;;;5.68;1.95;;;;;;;18.27;62.68;100212.53;5036682;28;20263;-61
2023/07/01 03:50:45;;;;;;;4.40;2.10;;;;;;;18.31;62.45;100208.84;5039046;28;21107;-61
2023/07/01 03:53:11;;;;;;;8.30;2.17;;;;;;;18.34;62.23;100203.47;5035615;28;20063;-61
2023/07/01 03:55:36;;;;;;;3.40;2.10;;;;;;;18.35;62.13;100192.06;5029526;28;20120;-61
2023/07/01 03:58:01;;;;;;;6.30;2.20;;;;;;;18.36;62.69;100206.84;5032341;28;20040;-61
2023/07/01 04:00:27;;;;;;;4.45;1.92;;;;;;;18.38;61.82;100199.75;5035345;28;20505;-61
2023/07/01 04:02:54;;;;;;;4.03;2.05;;;;;;;18.37;61.82;100203.31;5031818;28;20108;-61
2023/07/01 04:05:19;;;;;;;3.45;2.20;;;;;;;18.38;62.28;100205.84;5030644;28;20728;-61
2023/07/01 04:07:47;;;;;;;5.75;1.92;;;;;;;18.37;61.96;100198.91;5040745;28;20047;-61
2023/07/01 04:10:13;;;;;;;2.17;1.40;;;;;;;18.38;62.01;100200.59;5032832;28;20041;-61
2023/07/01 04:12:39;;;;;;;4.90;2.05;;;;;;;18.37;61.88;100191.06;5030645;28;21112;-61
2023/07/01 04:15:09;;;;;;;4.47;2.05;;;;;;;18.39;61.67;100189.22;5033063;28;20718;-61
2023/07/01 04:17:41;;;;;;;6.38;2.20;;;;;;;18.40;61.77;100192.69;5036926;28;20103;-61
2023/07/01 04:20:07;;;;;;;4.30;1.88;;;;;;;18.42;61.22;100185.59;5032630;28;20474;-61
2023/07/01 04:22:32;;;;;;;4.40;1.88;;;;;;;18.44;60.87;100171.53;5032679;28;20040;-61
2023/07/01 04:24:58;;;;;;;4.32;1.95;;;;;;;18.46;60.74;100169.66;5031996;28;20135;-61
2023/07/01 04:27:23;;;;;;;5.93;1.80;;;;;;;18.47;60.72;100171.38;5033577;28;20704;-61
2023/07/01 04:29:49;;;;;;;3.45;1.83;;;;;;;18.50;60.21;100160.75;5033893;28;20051;-61
2023/07/01 04:32:14;;;;;;;3.92;1.90;;;;;;;18.50;60.79;100170.34;5032711;28;20909;-61
2023/07/01 04:34:39;;;;;;;3.30;1.60;;;;;;;18.45;62.37;100201.16;5032159;28;20497;-61
2023/07/01 04:37:05;;;;;;;4.72;1.83;;;;;;;18.28;64.65;100243.00;5030605;28;21746;-61
2023/07/01 04:39:30;;;;;;;3.97;1.67;;;;;;;18.15;65.56;100247.13;5034020;28;20168;-61
2023/07/01 04:41:55;;;;;;;3.50;2.45;;;;;;;18.05;66.65;100258.94;5030601;28;20056;-61
2023/07/01 04:44:24;;;;;;;2.88;1.92;;;;;;;18.00;66.33;100238.22;5034613;28;20530;-61
2023/07/01 04:46:50;;;;;;;8.02;2.00;;;;;;;18.03;65.97;100235.47;5033783;28;20127;-61
2023/07/01 04:49:15;;;;;;;4.47;1.80;;;;;;;18.04;64.49;100192.72;5033711;28;20029;-62
2023/07/01 04:51:41;;;;;;;3.05;1.80;;;;;;;18.12;64.11;100187.09;5033887;28;20116;-61
2023/07/01 04:54:06;;;;;;;3.38;2.08;;;;;;;18.18;64.00;100184.19;5034575;28;20086;-63
2023/07/01 04:56:32;;;;;;;3.78;1.88;;;;;;;18.27;62.64;100168.03;5033077;28;20057;-63
2023/07/01 04:58:57;;;;;;;3.85;1.95;;;;;;;18.37;61.42;100130.88;5029841;28;20049;-63
2023/07/01 05:01:23;;;;;;;6.25;2.25;;;;;;;18.46;60.93;100125.16;5030810;28;20094;-62
2023/07/01 05:03:48;;;;;;;4.70;1.90;;;;;;;18.61;60.54;100117.47;5036564;28;20425;-62
2023/07/01 05:06:14;;;;;;;2.45;1.63;;;;;;;18.68;59.90;100106.59;5030553;28;20032;-62
2023/07/01 05:08:39;;;;;;;4.45;1.80;;;;;;;18.75;59.18;100094.91;5031901;28;20040;-63
2023/07/01 05:11:04;;;;;;;2.70;1.75;;;;;;;18.87;58.38;100075.94;5030720;28;20506;-62
2023/07/01 05:13:30;;;;;;;2.95;1.67;;;;;;;18.95;58.06;100075.53;5030865;28;20037;-62
2023/07/01 05:15:56;;;;;;;5.00;2.10;;;;;;;19.02;57.50;100067.28;5032913;28;20121;-62
2023/07/01 05:18:21;;;;;;;2.80;1.60;;;;;;;19.10;58.27;100066.84;5029020;28;20079;-62
2023/07/01 05:20:47;;;;;;;5.35;1.80;;;;;;;19.15;57.35;100049.09;5033757;28;20091;-63
2023/07/01 05:23:12;;;;;;;2.80;1.85;;;;;;;19.23;57.91;100067.03;5033274;28;20139;-62
2023/07/01 05:25:38;;;;;;;4.57;1.85;;;;;;;19.27;56.83;100048.41;5032452;28;20048;-62
2023/07/01 05:28:04;;;;;;;3.92;1.77;;;;;;;19.29;56.86;100040.50;5031484;28;20041;-62
2023/07/01 05:30:29;;;;;;;5.65;1.88;;;;;;;19.33;57.61;100055.94;5032481;28;20052;-62
2023/07/01 05:32:54;;;;;;;7.00;2.45;;;;;;;19.32;56.84;100038.56;5034119;28;20045;-62
2023/07/01 05:35:20;;;;;;;2.60;1.80;;;;;;;19.38;57.41;100053.09;5029365;28;20041;-62
2023/07/01 05:37:45;;;;;;;3.88;1.98;;;;;;;19.42;57.71;100057.22;5034584;28;20094;-62
2023/07/01 05:40:12;;;;;;;3.80;2.22;;;;;;;19.44;57.62;100063.22;5027635;28;20091;-63
2023/07/01 05:42:38;;;;;;;2.35;1.92;;;;;;;19.46;57.67;100063.97;5031929;28;20430;-63
2023/07/01 05:45:04;;;;;;;4.55;1.85;;;;;;;19.44;57.81;100063.22;5029633;28;20033;-63
2023/07/01 05:47:29;;;;;;;3.97;2.00;;;;;;;19.38;57.99;100069.66;5034062;28;20049;-62
2023/07/01 05:49:55;;;;;;;7.25;2.47;;;;;;;19.38;58.55;100081.91;5038227;28;20033;-63
2023/07/01 05:52:21;;;;;;;2.88;2.00;;;;;;;19.30;58.94;100084.09;5033963;28;20095;-62
2023/07/01 05:54:46;;;;;;;4.85;2.05;;;;;;;19.27;59.23;100081.63;5031792;28;20062;-62
2023/07/01 05:57:11;;;;;;;2.42;1.83;;;;;;;19.28;59.52;100089.44;5035313;28;20124;-63
2023/07/01 05:59:37;;;;;;;5.15;2.00;;;;;;;19.29;59.06;100079.81;5025768;28;20042;-63
2023/07/01 06:02:02;;;;;;;5.97;1.90;;;;;;;19.29;59.59;100090.28;5027839;28;20133;-63
2023/07/01 06:04:28;;;;;;;4.90;2.30;;;;;;;19.30;59.39;100090.19;5033623;28;20044;-62
2023/07/01 06:06:53;;;;;;;4.18;2.28;;;;;;;19.36;59.41;100086.38;5035427;28;20041;-64
2023/07/01 06:09:18;;;;;;;5.07;2.15;;;;;;;19.40;59.53;100096.63;5040100;28;20043;-62
2023/07/01 06:11:43;;;;;;;5.35;2.20;;;;;;;19.40;59.58;100094.00;5035502;28;20037;-63
2023/07/01 06:14:09;;;;;;;3.38;1.50;;;;;;;19.47;59.41;100092.72;5035630;28;20659;-63
2023/07/01 06:16:34;;;;;;;4.15;1.90;;;;;;;19.57;59.14;100090.44;5038375;28;20584;-62
2023/07/01 06:19:00;;;;;;;4.03;2.25;;;;;;;19.68;59.01;100081.97;5034328;28;20136;-62
2023/07/01 06:21:25;;;;;;;4.57;2.35;;;;;;;19.76;58.98;100085.00;5033054;28;20814;-63
2023/07/01 06:23:54;;;;;;;3.40;1.88;;;;;;;19.83;57.86;100060.16;5037067;28;20389;-62
2023/07/01 06:26:20;;;;;;;4.80;2.17;;;;;;;19.86;57.69;100062.63;5039381;28;20549;-62
2023/07/01 06:28:45;;;;;;;4.03;2.33;;;;;;;19.88;58.79;100089.59;5040032;28;20052;-63
2023/07/01 06:31:11;;;;;;;3.42;1.98;;;;;;;19.85;59.15;100095.00;5040687;28;20033;-62
2023/07/01 06:33:40;;;;;;;4.40;2.20;;;;;;;19.78;60.43;100118.06;5036925;28;20033;-62
2023/07/01 06:36:06;;;;;;;5.32;2.22;;;;;;;19.73;60.26;100117.50;5038567;28;20079;-63
2023/07/01 06:38:32;;;;;;;4.43;2.20;;;;;;;19.72;60.30;100117.56;5039565;28;20048;-62
2023/07/01 06:40:57;;;;;;;4.53;2.15;;;;;;;19.72;60.48;100123.66;5033468;28;20382;-62
2023/07/01 06:43:23;;;;;;;3.83;1.88;;;;;;;19.70;60.87;100119.44;5036625;28;20032;-63
2023/07/01 06:45:48;;;;;;;4.18;2.70;;;;;;;19.75;61.53;100126.13;5037928;28;20140;-63
2023/07/01 06:48:13;;;;;;;4.53;2.10;;;;;;;19.75;62.08;100135.75;5038905;28;20021;-63
2023/07/01 06:50:39;;;;;;;4.22;2.20;;;;;;;19.76;61.82;100126.97;5037978;28;20068;-63
2023/07/01 06:53:04;;;;;;;4.68;2.10;;;;;;;19.78;62.01;100130.34;5037808;28;20434;-63
2023/07/01 06:55:30;;;;;;;3.72;2.25;;;;;;;19.80;60.83;100118.84;5031269;28;20045;-62
2023/07/01 06:57:55;;;;;;;4.35;1.60;;;;;;;19.77;62.00;100137.34;5038695;28;20044;-63
2023/07/01 07:00:21;;;;;;;3.08;2.10;;;;;;;19.67;64.72;100186.03;5034984;28;20072;-63
2023/07/01 07:02:46;;;;;;;4.20;1.85;;;;;;;19.41;66.25;100203.13;5038130;28;20032;-63
2023/07/01 07:05:12;;;;;;;5.57;2.03;;;;;;;19.18;68.88;100211.38;5034595;28;20106;-62
2023/07/01 07:07:37;;;;;;;4.93;2.30;;;;;;;18.96;71.11;100195.09;5035137;28;20247;-63
2023/07/01 07:10:03;;;;;;;3.25;1.70;;;;;;;18.77;73.86;100189.06;5032548;28;20410;-63
2023/07/01 07:12:29;;;;;;;3.30;1.83;;;;;;;18.61;75.30;100186.38;5031629;28;20038;-63
2023/07/01 07:14:54;;;;;;;6.63;1.83;;;;;;;18.38;77.36;100176.19;5040884;28;20409;-62
2023/07/01 07:17:19;;;;;;;5.60;2.22;;;;;;;18.15;79.92;100179.09;5038228;28;20041;-62
2023/07/01 07:19:45;;;;;;;4.18;2.00;;;;;;;17.96;82.05;100169.53;5038981;28;20794;-62
2023/07/01 07:22:10;;;;;;;6.90;2.65;;;;;;;17.81;84.49;100167.59;5043139;28;20037;-62
2023/07/01 07:24:36;;;;;;;5.80;2.90;;;;;;;17.81;86.92;100172.84;5040749;28;20037;-62
2023/07/01 07:27:02;;;;;;;4.05;2.22;;;;;;;17.88;86.52;100173.44;5042858;28;20040;-62
2023/07/01 07:29:28;;;;;;;3.78;2.25;;;;;;;18.02;87.26;100170.19;5038599;28;20044;-62
2023/07/01 07:31:55;;;;;;;5.88;2.50;;;;;;;18.20;88.12;100174.47;5034970;28;20048;-62
2023/07/01 07:34:20;;;;;;;6.30;2.55;;;;;;;18.27;87.63;100170.66;5039854;28;20411;-62
2023/07/01 07:36:46;;;;;;;5.97;2.83;;;;;;;18.40;88.49;100166.53;5042646;28;20041;-62
2023/07/01 07:39:14;;;;;;;4.60;2.30;;;;;;;18.50;88.16;100163.34;5039386;28;20914;-63
2023/07/01 07:41:40;;;;;;;4.47;2.85;;;;;;;18.64;88.62;100173.13;5033001;28;20300;-62
2023/07/01 07:44:06;;;;;;;5.25;2.70;;;;;;;18.72;87.37;100160.50;5037934;28;20072;-62
2023/07/01 07:46:33;;;;;;;6.22;2.72;;;;;;;18.79;85.63;100161.88;5038341;28;20148;-62
2023/07/01 07:48:58;;;;;;;5.97;2.85;;;;;;;18.89;86.31;100165.75;5038093;28;20047;-63
2023/07/01 07:51:23;;;;;;;6.40;3.03;;;;;;;18.91;85.57;100161.25;5040001;28;20033;-63
2023/07/01 07:53:49;;;;;;;3.75;2.47;;;;;;;18.98;84.14;100156.56;5037189;28;20049;-63
2023/07/01 07:56:14;;;;;;;5.05;3.15;;;;;;;19.18;83.55;100161.59;5035533;28;20063;-63
2023/07/01 07:58:39;;;;;;;4.32;2.60;;;;;;;19.41;84.56;100158.56;5033132;28;20041;-63
2023/07/01 08:01:05;;;;;;;4.90;2.53;;;;;;;19.47;82.88;100166.13;5035397;28;20218;-63
2023/07/01 08:03:30;;;;;;;4.93;2.40;;;;;;;19.39;80.92;100159.59;5039092;28;20762;-63
2023/07/01 08:05:55;;;;;;;5.78;2.13;;;;;;;19.53;79.80;100155.28;5038681;28;20694;-63
2023/07/01 08:08:21;;;;;;;8.25;2.30;;;;;;;19.86;81.12;100165.72;5030652;28;20043;-63
2023/07/01 08:10:46;;;;;;;5.35;2.45;;;;;;;20.02;80.06;100157.84;5030712;28;20051;-63
2023/07/01 08:13:13;;;;;;;3.28;2.00;;;;;;;20.09;79.88;100148.72;5032859;28;20162;-63
2023/07/01 08:15:39;;;;;;;3.78;2.20;;;;;;;20.20;79.54;100148.94;5039194;28;20025;-63
2023/07/01 08:18:04;;;;;;;4.22;2.10;;;;;;;20.30;80.36;100155.34;5039998;28;20773;-63
2023/07/01 08:20:29;;;;;;;7.25;2.45;;;;;;;20.28;79.68;100151.09;5032036;28;20076;-62
2023/07/01 08:22:55;;;;;;;3.28;1.70;;;;;;;20.22;78.61;100143.56;5037055;28;20136;-62
2023/07/01 08:25:20;;;;;;;4.32;2.10;;;;;;;19.96;78.48;100151.19;5031325;28;20148;-62
2023/07/01 08:27:45;;;;;;;6.15;2.08;;;;;;;19.81;79.32;100146.78;5036322;28;20060;-62
2023/07/01 08:30:12;;;;;;;3.80;1.85;;;;;;;19.68;80.46;100158.03;5036178;28;20430;-62
2023/07/01 08:32:38;;;;;;;3.80;2.17;;;;;;;19.63;82.29;100142.53;5034834;28;20613;-63
2023/07/01 08:35:04;;;;;;;3.83;2.60;;;;;;;19.54;82.64;100154.38;5041709;28;20072;-62
2023/07/01 08:37:30;;;;;;;3.45;2.25;;;;;;;19.58;83.59;100155.06;5038526;28;20116;-62
2023/07/01 08:39:55;;;;;;;4.00;2.40;;;;;;;19.39;83.36;100149.09;5035403;28;20120;-64
2023/07/01 08:42:25;;;;;;;5.00;2.38;;;;;;;19.49;83.15;100139.81;5030218;28;20098;-63
2023/07/01 08:44:52;;;;;;;4.63;2.13;;;;;;;19.58;83.96;100149.81;5038440;28;20041;-63
2023/07/01 08:47:19;;;;;;;3.55;2.03;;;;;;;19.73;82.83;100141.09;5037216;28;20043;-63
2023/07/01 08:49:50;;;;;;;4.15;1.95;;;;;;;19.78;82.42;100151.31;5029852;28;20406;-63
2023/07/01 08:52:19;;;;;;;5.40;2.15;;;;;;;19.80;82.48;100145.09;5035619;28;20641;-63
2023/07/01 08:54:45;;;;;;;3.15;2.03;;;;;;;19.65;81.82;100156.38;5034306;28;20041;-62
2023/07/01 08:57:11;;;;;;;3.63;2.28;;;;;;;19.46;84.05;100153.09;5041101;28;20094;-62
2023/07/01 08:59:37;;;;;;;12.13;6.75;;;;;;;19.25;85.25;100157.72;5033573;28;20048;-62
2023/07/01 09:02:02;;;;;;;7.05;3.05;;;;;;;19.23;85.91;100146.50;5034249;28;20560;-63
2023/07/01 09:04:28;;;;;;;3.55;2.45;;;;;;;19.30;85.05;100142.59;5032225;28;20132;-62
2023/07/01 09:06:54;;;;;;;3.65;2.28;;;;;;;19.59;83.64;100131.34;5039673;28;20033;-63
2023/07/01 09:09:19;;;;;;;3.17;2.38;;;;;;;19.94;83.75;100132.06;5034831;28;20026;-63
2023/07/01 09:11:47;;;;;;;3.08;2.50;;;;;;;20.13;82.69;100123.97;5038164;28;20129;-62
2023/07/01 09:14:13;;;;;;;16.80;9.90;;;;;;;20.44;80.75;100115.16;5038009;28;20041;-62
2023/07/01 09:16:39;;;;;;;3.83;3.20;;;;;;;20.42;78.81;100114.41;5031164;28;20037;-62
2023/07/01 09:19:06;;;;;;;4.55;1.92;;;;;;;20.75;78.56;100104.53;5034753;28;20029;-62
2023/07/01 09:21:32;;;;;;;2.25;1.88;;;;;;;20.86;76.49;100103.91;5041642;28;20091;-62
2023/07/01 09:24:01;;;;;;;5.53;2.20;;;;;;;20.95;76.49;100101.56;5032075;28;20574;-63
2023/07/01 09:26:31;;;;;;;3.03;2.05;;;;;;;21.07;76.51;100103.44;5046078;28;20591;-63
2023/07/01 09:28:58;;;;;;;2.72;1.80;;;;;;;21.09;76.25;100106.81;5038197;28;20049;-63
2023/07/01 09:31:25;;;;;;;3.25;2.03;;;;;;;21.11;75.42;100099.66;5040157;28;20037;-63
2023/07/01 09:34:01;;;;;;;4.95;2.17;;;;;;;20.79;73.64;100078.94;5032485;28;20751;-62
2023/07/01 09:36:27;;;;;;;2.67;1.70;;;;;;;20.75;75.54;100103.72;5033808;28;20029;-62
2023/07/01 09:38:54;;;;;;;3.10;1.58;;;;;;;20.60;75.87;100098.38;5044433;28;20136;-62
2023/07/01 09:41:23;;;;;;;2.20;1.40;;;;;;;20.65;75.65;100087.63;5039080;28;20047;-63
2023/07/01 09:43:49;;;;;;;2.13;1.60;;;;;;;20.49;75.55;100090.31;5041670;28;20447;-62
2023/07/01 09:46:14;;;;;;;1.65;1.45;;;;;;;20.42;75.93;100088.97;5034388;28;20068;-62
2023/07/01 09:48:52;;;;;;;2.85;1.40;;;;;;;20.31;74.87;100077.44;5038097;28;20067;-62
2023/07/01 09:51:18;;;;;;;2.13;1.60;;;;;;;20.26;76.51;100096.09;5040871;28;20136;-63
2023/07/01 09:53:43;;;;;;;2.00;1.58;;;;;;;20.29;77.01;100100.31;5045456;28;20054;-62
2023/07/01 09:56:12;;;;;;;1.70;1.40;;;;;;;20.18;77.41;100093.06;5040187;28;20133;-62
2023/07/01 09:58:39;;;;;;;1.83;1.50;;;;;;;20.16;77.11;100092.28;5035720;28;20051;-62
2023/07/01 10:01:04;;;;;;;3.13;2.00;;;;;;;20.25;78.34;100101.41;5038223;28;20075;-62
2023/07/01 10:03:30;;;;;;;2.08;1.70;;;;;;;20.39;77.66;100078.69;5034617;28;20026;-62
2023/07/01 10:05:55;;;;;;;2.20;1.60;;;;;;;20.49;77.07;100077.19;5038028;28;20602;-62
2023/07/01 10:08:21;;;;;;;2.22;1.15;;;;;;;20.56;76.36;100069.78;5035516;28;20773;-64
2023/07/01 10:11:01;;;;;;;2.30;1.20;;;;;;;20.49;75.28;100052.72;5030914;28;20124;-62
2023/07/01 10:13:28;;;;;;;2.58;1.75;;;;;;;20.57;77.07;100082.81;5042679;28;20068;-63
2023/07/01 10:15:55;;;;;;;3.85;1.13;;;;;;;20.67;76.71;100078.72;5041131;28;20112;-63
2023/07/01 10:18:22;;;;;;;1.38;1.10;;;;;;;20.74;76.76;100066.09;5039928;28;20393;-63
2023/07/01 10:20:48;;;;;;;1.38;1.00;;;;;;;20.87;75.76;100066.19;5038502;28;20569;-62
2023/07/01 10:23:14;;;;;;;0.82;0.80;;;;;;;21.05;73.66;100046.63;5038950;28;20516;-63
2023/07/01 10:25:40;;;;;;;1.85;0.70;;;;;;;21.15;72.99;100045.97;5037757;28;20040;-63
2023/07/01 10:28:10;;;;;;;1.35;0.60;;;;;;;21.17;72.20;100041.44;5039904;28;20037;-63
2023/07/01 10:30:41;;;;;;;2.05;0.68;;;;;;;21.19;72.15;100044.00;5030886;28;20029;-64
2023/07/01 10:33:30;;;;;;;1.48;0.90;;;;;;;21.13;72.93;100055.75;5037973;28;20116;-63
2023/07/01 10:36:14;;;;;;;1.58;0.93;;;;;;;21.04;72.85;100048.44;5048145;28;20037;-62
2023/07/01 10:38:40;;;;;;;5.28;1.05;;;;;;;20.88;73.36;100052.94;5037800;28;20055;-64
2023/07/01 10:41:06;;;;;;;0.73;0.70;;;;;;;20.85;72.43;100057.53;5034888;28;20053;-62
2023/07/01 10:43:38;;;;;;;1.25;0.90;;;;;;;20.88;73.13;100063.44;5034226;28;20819;-61
2023/07/01 10:46:03;;;;;;;1.77;0.80;;;;;;;20.89;74.86;100070.41;5034896;28;20125;-62
2023/07/01 10:48:29;;;;;;;1.55;0.75;;;;;;;20.90;74.91;100072.06;5040235;28;20401;-62
2023/07/01 10:51:11;;;;;;;3.17;0.88;;;;;;;20.96;74.39;100074.31;5037274;28;20033;-62
2023/07/01 10:54:03;;;;;;;1.77;1.13;;;;;;;21.07;74.53;100071.03;5034892;28;20044;-62
2023/07/01 10:56:31;;;;;;;3.45;1.00;;;;;;;21.12;72.57;100050.56;5033332;28;20173;-62
2023/07/01 10:59:22;;;;;;;1.20;0.60;;;;;;;21.22;72.11;100049.88;5035921;28;20553;-62
2023/07/01 11:02:07;;;;;;;0.73;0.73;;;;;;;21.24;71.66;100042.75;5040165;28;20036;-61
2023/07/01 11:04:51;;;;;;;0.80;0.60;;;;;;;21.12;71.56;100046.16;5030076;28;20199;-61
2023/07/01 11:07:27;;;;;;;0.50;0.50;;;;;;;21.13;71.89;100053.13;5039086;28;20044;-61
2023/07/01 11:09:54;;;;;;;0.47;0.47;;;;;;;21.15;72.17;100045.97;5035341;28;20048;-61
2023/07/01 11:12:20;;;;;;;1.63;0.70;;;;;;;21.20;71.79;100045.66;5035533;28;20033;-61
2023/07/01 11:14:45;;;;;;;1.02;0.70;;;;;;;21.43;71.99;100039.81;5042136;28;20043;-61
2023/07/01 11:17:13;;;;;;;1.25;0.80;;;;;;;21.52;71.59;100033.94;5040349;28;20710;-61
2023/07/01 11:19:39;;;;;;;1.48;0.82;;;;;;;21.37;71.01;100034.09;5039168;28;20809;-61
2023/07/01 11:22:05;;;;;;;0.82;0.70;;;;;;;21.26;70.84;100040.00;5039793;28;20123;-62
2023/07/01 11:24:31;;;;;;;0.90;0.80;;;;;;;21.11;72.75;100057.59;5042034;28;20062;-62